createdAt,value
2023-03-06T00:02:09.518Z,36.50
2023-03-06T00:07:11.049Z,21.10
2023-03-06T00:12:12.544Z,30.50
2023-03-06T00:17:14.047Z,27.20
2023-03-06T00:22:16.561Z,32.00
2023-03-06T00:27:18.455Z,33.60
2023-03-06T00:32:19.979Z,37.00
2023-03-06T00:37:23.434Z,27.70
2023-03-06T00:42:25.326Z,34.70
2023-03-06T00:47:27.267Z,28.80
2023-03-06T00:52:29.224Z,34.40
2023-03-06T00:57:30.769Z,35.10
2023-03-06T01:02:32.640Z,32.30
2023-03-06T01:07:37.018Z,35.50
2023-03-06T01:12:38.947Z,34.50
2023-03-06T01:17:40.473Z,35.20
2023-03-06T01:22:42.927Z,33.80
2023-03-06T01:27:44.458Z,35.00
2023-03-06T01:32:46.456Z,29.10
2023-03-06T01:37:47.946Z,27.10
2023-03-06T01:42:50.537Z,37.60
2023-03-06T01:47:51.998Z,38.30
2023-03-06T01:52:58.062Z,37.20
2023-03-06T01:58:03.849Z,36.50
2023-03-06T02:03:10.405Z,33.80
2023-03-06T02:08:15.004Z,34.70
2023-03-06T02:13:16.649Z,36.70
2023-03-06T02:18:18.421Z,38.90
2023-03-06T02:23:32.263Z,38.40
2023-03-06T02:28:34.670Z,37.60
2023-03-06T02:33:36.184Z,29.70
2023-03-06T02:38:44.590Z,39.90
2023-03-06T02:43:48.802Z,31.60
2023-03-06T02:48:50.349Z,33.30
2023-03-06T02:53:51.868Z,34.00
2023-03-06T02:58:53.339Z,32.00
2023-03-06T03:03:54.845Z,33.80
2023-03-06T03:08:56.322Z,30.30
2023-03-06T03:13:57.807Z,36.70
2023-03-06T03:18:59.315Z,34.40
2023-03-06T03:24:00.807Z,33.90
2023-03-06T03:29:04.197Z,40.30
2023-03-06T03:34:06.163Z,31.10
2023-03-06T03:39:07.686Z,34.50
2023-03-06T03:44:09.711Z,37.10
2023-03-06T03:49:11.312Z,30.40
2023-03-06T03:54:12.911Z,65.40
2023-03-06T03:59:14.963Z,49.60
2023-03-06T04:04:16.553Z,39.90
2023-03-06T04:09:18.049Z,25.40
2023-03-06T04:14:19.501Z,27.80
2023-03-06T04:19:20.979Z,33.80
2023-03-06T04:24:22.436Z,29.30
2023-03-06T04:29:23.888Z,32.60
2023-03-06T04:34:25.547Z,32.90
2023-03-06T04:39:27.135Z,26.40
2023-03-06T04:44:28.643Z,32.70
2023-03-06T04:49:30.143Z,33.60
2023-03-06T04:54:32.127Z,42.60
2023-03-06T04:59:33.670Z,34.90
2023-03-06T05:04:35.196Z,26.00
2023-03-06T05:09:39.127Z,30.40
2023-03-06T05:14:40.789Z,15.60
2023-03-06T05:19:42.243Z,31.60
2023-03-06T05:24:43.705Z,22.10
2023-03-06T05:29:45.379Z,39.10
2023-03-06T05:34:47.559Z,32.30
2023-03-06T05:39:50.066Z,31.40
2023-03-06T05:44:51.610Z,39.00
2023-03-06T05:49:53.105Z,31.80
2023-03-06T05:54:55.442Z,38.70
2023-03-06T05:59:56.961Z,35.90
2023-03-06T06:04:58.517Z,42.50
2023-03-06T06:10:03.137Z,36.30
2023-03-06T06:15:06.643Z,35.40
2023-03-06T06:20:09.477Z,35.20
2023-03-06T06:25:10.956Z,36.50
2023-03-06T06:30:13.443Z,37.50
2023-03-06T06:35:15.117Z,26.60
2023-03-06T06:40:17.107Z,32.00
2023-03-06T06:45:19.016Z,37.30
2023-03-06T06:50:20.603Z,31.40
2023-03-06T06:55:22.110Z,32.70
2023-03-06T07:00:24.439Z,32.70
2023-03-06T07:05:25.961Z,36.90
2023-03-06T07:10:27.645Z,35.20
2023-03-06T07:15:30.884Z,34.20
2023-03-06T07:20:32.650Z,35.40
2023-03-06T07:25:34.323Z,33.80
2023-03-06T07:30:35.893Z,34.00
2023-03-06T07:35:37.435Z,35.90
2023-03-06T07:40:39.064Z,33.40
2023-03-06T07:45:40.531Z,27.30
2023-03-06T07:50:42.170Z,26.50
2023-03-06T07:55:43.695Z,33.10
2023-03-06T08:00:45.709Z,27.30
2023-03-06T08:05:47.203Z,30.10
2023-03-06T08:10:49.213Z,25.40
2023-03-06T08:15:50.785Z,25.20
2023-03-06T08:21:05.936Z,23.20
2023-03-06T08:26:16.387Z,17.90
2023-03-06T08:31:27.217Z,23.40
2023-03-06T08:36:29.436Z,23.30
2023-03-06T08:41:31.781Z,21.50
2023-03-06T08:46:34.999Z,20.20
2023-03-06T08:51:36.533Z,17.00
2023-03-06T08:56:38.497Z,21.80
2023-03-06T09:01:40.874Z,24.40
2023-03-06T09:06:45.303Z,20.00
2023-03-06T09:11:46.824Z,19.90
2023-03-06T09:16:48.571Z,22.50
2023-03-06T09:21:50.266Z,21.90
2023-03-06T09:26:51.886Z,18.10
2023-03-06T09:31:53.639Z,19.80
2023-03-06T09:36:57.264Z,19.60
2023-03-06T09:41:59.326Z,23.10
2023-03-06T09:47:18.967Z,23.90
2023-03-06T09:52:30.275Z,18.10
2023-03-06T09:57:36.210Z,16.90
2023-03-06T10:02:44.524Z,19.70
2023-03-06T10:07:53.022Z,25.10
2023-03-06T10:13:10.020Z,22.80
2023-03-06T10:18:13.349Z,21.40
2023-03-06T10:23:56.474Z,21.50
2023-03-06T10:29:28.773Z,20.40
2023-03-06T10:34:35.677Z,21.00
2023-03-06T10:39:37.459Z,36.30
2023-03-06T10:44:38.962Z,22.30
2023-03-06T10:49:41.213Z,20.10
2023-03-06T10:54:44.417Z,17.60
2023-03-06T10:59:56.532Z,17.40
2023-03-06T11:05:00.945Z,15.50
2023-03-06T11:10:19.412Z,14.40
2023-03-06T11:15:23.759Z,16.10
2023-03-06T11:20:48.544Z,9.20
2023-03-06T11:26:11.091Z,18.80
2023-03-06T11:31:20.960Z,12.10
2023-03-06T11:36:33.845Z,29.40
2023-03-06T11:41:57.732Z,11.80
2023-03-06T11:47:31.459Z,16.20
2023-03-06T11:52:53.224Z,25.50
2023-03-06T11:58:16.510Z,16.80
2023-03-06T12:03:36.280Z,12.70
2023-03-06T12:09:04.934Z,28.80
2023-03-06T12:14:13.009Z,48.80
2023-03-06T12:19:33.245Z,30.50
2023-03-06T12:25:03.176Z,51.60
2023-03-06T12:30:26.364Z,20.20
2023-03-06T12:36:00.345Z,18.60
2023-03-06T12:41:16.913Z,17.80
2023-03-06T12:46:24.941Z,22.50
2023-03-06T12:51:27.314Z,25.60
2023-03-06T12:56:31.739Z,21.30
2023-03-06T13:01:55.654Z,27.40
2023-03-06T13:07:28.977Z,16.80
2023-03-06T13:13:25.092Z,17.70
2023-03-06T13:18:26.575Z,18.40
2023-03-06T13:23:37.390Z,26.50
2023-03-06T13:28:46.964Z,32.10
2023-03-06T13:33:55.356Z,23.60
2023-03-06T13:39:02.566Z,29.90
2023-03-06T13:44:26.113Z,30.70
2023-03-06T13:49:29.473Z,22.80
2023-03-06T13:54:33.870Z,19.70
2023-03-06T14:00:08.744Z,35.30
2023-03-06T14:05:14.548Z,25.70
2023-03-06T14:10:24.919Z,32.70
2023-03-06T14:15:36.185Z,25.30
2023-03-06T14:20:49.369Z,31.50
2023-03-06T14:25:59.002Z,28.90
2023-03-06T14:31:03.461Z,32.40
2023-03-06T14:36:09.978Z,27.30
2023-03-06T14:41:14.061Z,31.90
2023-03-06T14:46:21.470Z,30.90
2023-03-06T14:51:25.536Z,34.90
2023-03-06T14:56:28.287Z,40.50
2023-03-06T15:01:36.392Z,42.30
2023-03-06T15:06:45.285Z,40.80
2023-03-06T15:12:08.043Z,37.70
2023-03-06T15:17:18.342Z,34.30
2023-03-06T15:22:33.571Z,46.90
2023-03-06T15:27:35.479Z,50.50
2023-03-06T15:32:42.524Z,38.50
2023-03-06T15:37:44.841Z,40.50
2023-03-06T15:42:46.854Z,26.30
2023-03-06T15:47:49.863Z,32.10
2023-03-06T15:52:53.065Z,26.50
2023-03-06T15:57:59.686Z,27.50
2023-03-06T16:03:02.028Z,30.50
2023-03-06T16:08:04.682Z,26.00
2023-03-06T16:13:11.140Z,26.50
2023-03-06T16:18:13.520Z,29.60
2023-03-06T16:23:16.374Z,27.80
2023-03-06T16:28:17.908Z,22.50
2023-03-06T16:33:20.745Z,22.10
2023-03-06T16:38:22.273Z,25.90
2023-03-06T16:43:23.839Z,26.00
2023-03-06T16:48:25.317Z,21.90
2023-03-06T16:53:26.913Z,23.00
2023-03-06T16:58:28.481Z,25.80
2023-03-06T17:03:30.022Z,24.90
2023-03-06T17:08:31.610Z,26.80
2023-03-06T17:13:33.094Z,33.70
2023-03-06T17:18:35.236Z,41.00
2023-03-06T17:23:37.915Z,35.30
2023-03-06T17:28:39.975Z,30.10
2023-03-06T17:33:42.418Z,36.50
2023-03-06T17:38:44.303Z,39.10
2023-03-06T17:43:46.188Z,40.60
2023-03-06T17:48:47.865Z,31.10
2023-03-06T17:53:49.748Z,41.70
2023-03-06T17:58:51.408Z,37.90
2023-03-06T18:03:53.623Z,45.30
2023-03-06T18:08:55.094Z,45.60
2023-03-06T18:13:56.837Z,50.70
2023-03-06T18:18:58.595Z,56.70
2023-03-06T18:24:00.126Z,44.50
2023-03-06T18:29:04.512Z,42.40
2023-03-06T18:34:12.670Z,44.70
2023-03-06T18:39:15.799Z,48.00
2023-03-06T18:44:17.657Z,52.50
2023-03-06T18:49:19.226Z,46.90
2023-03-06T18:54:20.994Z,47.90
2023-03-06T18:59:22.845Z,28.50
2023-03-06T19:04:26.130Z,22.80
2023-03-06T19:09:27.630Z,16.60
2023-03-06T19:14:29.637Z,29.80
2023-03-06T19:19:31.151Z,26.70
2023-03-06T19:24:32.692Z,31.20
2023-03-06T19:29:34.246Z,31.60
2023-03-06T19:34:35.766Z,32.80
2023-03-06T19:39:37.323Z,30.20
2023-03-06T19:44:38.788Z,32.70
2023-03-06T19:49:40.433Z,41.00
2023-03-06T19:54:41.923Z,45.90
2023-03-06T19:59:43.829Z,45.00
2023-03-06T20:04:47.229Z,43.80
2023-03-06T20:09:48.913Z,49.00
2023-03-06T20:14:53.244Z,49.80
2023-03-06T20:19:58.180Z,43.70
2023-03-06T20:24:59.662Z,60.00
2023-03-06T20:30:01.507Z,42.40
2023-03-06T20:35:03.590Z,44.60
2023-03-06T20:40:06.082Z,48.20
2023-03-06T20:45:08.166Z,43.60
2023-03-06T20:50:10.224Z,59.30
2023-03-06T20:55:12.100Z,55.90
2023-03-06T21:00:14.018Z,62.00
2023-03-06T21:05:15.874Z,53.10
2023-03-06T21:10:17.552Z,52.40
2023-03-06T21:15:19.635Z,41.50
2023-03-06T21:20:21.298Z,37.50
2023-03-06T21:25:23.391Z,33.70
2023-03-06T21:30:24.865Z,36.60
2023-03-06T21:35:26.828Z,39.60
2023-03-06T21:40:28.415Z,39.20
2023-03-06T21:45:31.818Z,29.00
2023-03-06T21:50:33.402Z,21.80
2023-03-06T21:55:39.895Z,27.80
2023-03-06T22:00:41.436Z,20.40
2023-03-06T22:05:43.347Z,20.30
2023-03-06T22:10:47.524Z,18.70
2023-03-06T22:15:51.737Z,16.80
2023-03-06T22:20:53.299Z,21.60
2023-03-06T22:25:54.808Z,15.90
2023-03-06T22:31:02.135Z,17.50
2023-03-06T22:36:07.654Z,17.60
2023-03-06T22:41:10.712Z,21.40
2023-03-06T22:46:14.965Z,19.10
2023-03-06T22:51:19.424Z,22.50
2023-03-06T22:56:22.219Z,18.00
2023-03-06T23:01:26.769Z,23.20
2023-03-06T23:06:34.043Z,19.50
2023-03-06T23:11:35.578Z,25.40
2023-03-06T23:16:38.907Z,21.00
2023-03-06T23:21:40.987Z,23.40
2023-03-06T23:26:42.589Z,19.70
2023-03-06T23:31:44.053Z,25.40
2023-03-06T23:36:45.569Z,25.20
2023-03-06T23:41:47.581Z,28.40
2023-03-06T23:46:49.075Z,24.00
2023-03-06T23:51:50.690Z,26.00
2023-03-06T23:56:52.182Z,24.00
